Pine Lake, Georgia
Current Conditions -  °F | °C
As of 8:53 AM on Saturday 20 Dec 2014 (Local Time) from KPDK Reporting Station
Haze Haze  
Wind Chill: 44°   Ceiling: 3300
Heat Index: 44°   Visibility: 4mi
Dew Point: 42°   Wind: 0mph
Humidity: 93%   Direction: NA
Pressure: 30.19"   Gusts: NA
Location:  33.79°N, 84.21°W
Report Text: KPDK 201353Z 00000KT 4SM BR OVC033 07/06 A3019 RMK AO2 SLP232 T00670056 $
Loading
Personal Weather Stations






























Interactive Weather Map New forecast layout! Learn more

10-Day Weather Forecast

Advertisements
Track Severe Weather on mobile